Time;durP1;ratioP1;P1;durP2;ratioP2;P2;SDS_P1;SDS_P2;PMS_P1;PMS_P2;Temp;Humidity;BMP_temperature;BMP_pressure;BME280_temperature;BME280_humidity;BME280_pressure;Samples;Min_cycle;Max_cycle;Signal;HPM_P1;HPM_P2
2023/01/18 00:01:09;;;;;;;;;;;;;;;1.08;89.76;93970.48;109139;1263;25895;-82
2023/01/18 00:03:39;;;;;;;;;;;;;;;1.02;90.14;93977.41;109172;1273;22495;-83
2023/01/18 00:06:09;;;;;;;;;;;;;;;0.97;90.27;93978.48;109120;1273;22544;-83
2023/01/18 00:08:39;;;;;;;;;;;;;;;0.94;90.51;93986.23;109125;1273;25265;-82
2023/01/18 00:11:11;;;;;;;;;;;;;;;0.94;90.86;93982.21;109116;1273;25220;-82
2023/01/18 00:13:41;;;;;;;;;;;;;;;0.97;90.84;93976.91;109118;1273;22498;-82
2023/01/18 00:16:12;;;;;;;;;;;;;;;0.97;90.90;93973.98;109129;1273;22507;-82
2023/01/18 00:18:44;;;;;;;;;;;;;;;0.96;91.08;93972.95;109072;1273;22602;-83
2023/01/18 00:21:14;;;;;;;;;;;;;;;0.95;91.07;93970.05;109124;1267;29020;-82
2023/01/18 00:23:45;;;;;;;;;;;;;;;0.93;91.32;93967.90;109160;1273;22562;-82
2023/01/18 00:26:15;;;;;;;;;;;;;;;0.89;91.35;93963.25;109133;1273;22556;-83
2023/01/18 00:28:44;;;;;;;;;;;;;;;0.87;91.51;93954.38;109139;1273;25256;-83
2023/01/18 00:31:15;;;;;;;;;;;;;;;0.85;91.74;93955.96;109108;1273;30740;-84
2023/01/18 00:33:45;;;;;;;;;;;;;;;0.81;91.72;93954.64;109149;1273;22608;-84
2023/01/18 00:36:15;;;;;;;;;;;;;;;0.79;91.99;93959.88;109117;1273;22509;-83
2023/01/18 00:38:50;;;;;;;;;;;;;;;0.78;91.94;93966.20;109117;1270;22505;-84
2023/01/18 00:41:20;;;;;;;;;;;;;;;0.77;92.01;93961.80;109105;1273;45355;-84
2023/01/18 00:43:49;;;;;;;;;;;;;;;0.74;92.44;93958.88;109141;1273;22501;-83
2023/01/18 00:46:19;;;;;;;;;;;;;;;0.71;92.25;93958.95;109184;1273;23261;-84
2023/01/18 00:48:49;;;;;;;;;;;;;;;0.68;92.46;93955.17;109137;1273;25009;-84
2023/01/18 00:51:19;;;;;;;;;;;;;;;0.67;92.61;93944.56;109043;1273;39449;-84
2023/01/18 00:53:49;;;;;;;;;;;;;;;0.65;93.15;93940.98;109127;1273;22519;-84
2023/01/18 00:56:20;;;;;;;;;;;;;;;0.65;92.61;93940.73;109167;1273;23080;-83
2023/01/18 00:58:49;;;;;;;;;;;;;;;0.64;93.20;93935.85;109145;1267;24189;-83
2023/01/18 01:01:19;;;;;;;;;;;;;;;0.64;93.24;93927.96;109119;1273;22501;-83
2023/01/18 01:06:47;;;;;;;;;;;;;;;0.65;93.52;93934.48;109108;1269;22558;-84
2023/01/18 01:09:18;;;;;;;;;;;;;;;0.64;93.56;93922.76;109129;1273;22489;-83
2023/01/18 01:26:07;;;;;;;;;;;;;;;0.64;94.09;93890.70;109167;1270;23348;-83
2023/01/18 01:28:37;;;;;;;;;;;;;;;0.64;94.37;93887.09;109159;1251;22529;-84
2023/01/18 01:31:10;;;;;;;;;;;;;;;0.63;94.26;93884.34;109096;1273;22800;-84
2023/01/18 01:33:40;;;;;;;;;;;;;;;0.63;94.18;93883.27;109184;1273;22810;-84
2023/01/18 01:36:11;;;;;;;;;;;;;;;0.61;94.18;93882.88;109135;1273;25221;-84
2023/01/18 01:38:41;;;;;;;;;;;;;;;0.62;94.52;93876.96;109159;1273;23876;-84
2023/01/18 01:41:16;;;;;;;;;;;;;;;0.63;94.51;93871.21;109095;1273;52028;-84
2023/01/18 01:43:46;;;;;;;;;;;;;;;0.62;94.71;93887.91;109190;1273;24166;-84
2023/01/18 01:46:30;;;;;;;;;;;;;;;0.62;94.97;93900.43;109098;1273;22681;-83
2023/01/18 01:49:05;;;;;;;;;;;;;;;0.62;94.78;93896.50;109145;1273;22539;-84
2023/01/18 01:51:36;;;;;;;;;;;;;;;0.63;94.76;93892.98;109136;1273;22576;-84
2023/01/18 01:54:08;;;;;;;;;;;;;;;0.64;95.03;93888.67;109146;1273;22555;-84
2023/01/18 01:56:38;;;;;;;;;;;;;;;0.61;94.90;93883.55;109176;1273;22521;-83
2023/01/18 01:59:08;;;;;;;;;;;;;;;0.58;94.67;93878.05;109173;1273;22534;-84
2023/01/18 02:01:42;;;;;;;;;;;;;;;0.56;94.98;93868.90;109127;1273;22541;-84
2023/01/18 02:04:12;;;;;;;;;;;;;;;0.54;95.29;93857.09;109200;1270;24180;-83
2023/01/18 02:06:41;;;;;;;;;;;;;;;0.52;95.13;93835.69;109127;1273;22576;-83
2023/01/18 02:09:12;;;;;;;;;;;;;;;0.53;95.22;93806.59;109121;1273;23357;-84
2023/01/18 02:11:43;;;;;;;;;;;;;;;0.53;95.54;93781.58;109103;1273;26587;-84
2023/01/18 02:14:20;;;;;;;;;;;;;;;0.52;95.59;93765.52;109178;1273;23720;-84
2023/01/18 02:17:00;;;;;;;;;;;;;;;0.51;95.40;93760.64;109144;1270;22514;-84
2023/01/18 02:19:44;;;;;;;;;;;;;;;0.50;95.59;93775.67;109144;1273;22511;-84
2023/01/18 02:22:20;;;;;;;;;;;;;;;0.49;95.69;93801.17;109065;1274;22519;-83
2023/01/18 02:25:03;;;;;;;;;;;;;;;0.49;95.64;93794.98;109146;1273;22493;-84
2023/01/18 02:27:42;;;;;;;;;;;;;;;0.48;95.81;93801.98;109150;1273;22597;-84
2023/01/18 02:30:16;;;;;;;;;;;;;;;0.46;95.75;93800.98;109132;1273;22499;-83
2023/01/18 02:32:55;;;;;;;;;;;;;;;0.47;95.78;93807.73;109083;1268;26473;-85
2023/01/18 02:35:28;;;;;;;;;;;;;;;0.48;95.84;93815.39;109170;1267;22536;-83
2023/01/18 02:38:03;;;;;;;;;;;;;;;0.47;95.87;93813.05;109092;1273;22498;-83
2023/01/18 02:40:38;;;;;;;;;;;;;;;0.47;96.10;93816.80;107432;1267;2256581;-83
2023/01/18 02:48:45;;;;;;;;;;;;;;;0.48;96.15;93830.35;109129;1273;23283;-84
2023/01/18 02:51:17;;;;;;;;;;;;;;;0.47;96.15;93838.27;109107;1273;24098;-84
2023/01/18 02:53:47;;;;;;;;;;;;;;;0.47;96.47;93835.67;109192;1273;23090;-83
2023/01/18 02:56:19;;;;;;;;;;;;;;;0.47;96.14;93836.09;109124;1273;22524;-84
2023/01/18 02:58:50;;;;;;;;;;;;;;;0.46;96.31;93839.81;109108;1267;23138;-83
2023/01/18 03:01:25;;;;;;;;;;;;;;;0.44;96.27;93838.48;109023;1273;69099;-84
2023/01/18 03:03:56;;;;;;;;;;;;;;;0.47;96.41;93838.86;109132;1270;22498;-84
2023/01/18 03:06:28;;;;;;;;;;;;;;;0.50;96.62;93842.30;109084;1273;22509;-83
2023/01/18 03:09:00;;;;;;;;;;;;;;;0.49;96.46;93831.26;109143;1270;22501;-84
2023/01/18 03:11:35;;;;;;;;;;;;;;;0.49;96.53;93833.77;109094;1266;85706;-84
2023/01/18 03:14:11;;;;;;;;;;;;;;;0.47;96.36;93834.73;109166;1273;22515;-84
2023/01/18 03:16:57;;;;;;;;;;;;;;;0.50;96.51;93836.66;109130;1267;22504;-84
2023/01/18 03:23:36;;;;;;;;;;;;;;;0.55;96.58;93853.42;109135;1273;22492;-83
2023/01/18 03:25:12;;;;;;;;;;;;;;;0.60;96.74;93864.07;109221;1269;22520;-84
2023/01/18 03:36:12;;;;;;;;;;;;;;;0.57;96.44;93837.51;109072;1273;22522;-84
2023/01/18 03:38:42;;;;;;;;;;;;;;;0.51;96.14;93820.22;109127;1273;25402;-84
2023/01/18 03:41:13;;;;;;;;;;;;;;;0.51;96.39;93820.95;109120;1273;22533;-83
2023/01/18 03:43:44;;;;;;;;;;;;;;;0.48;96.41;93829.18;109122;1273;22570;-83
2023/01/18 03:46:16;;;;;;;;;;;;;;;0.43;96.41;93825.52;109169;1273;23168;-83
2023/01/18 03:48:48;;;;;;;;;;;;;;;0.39;96.58;93820.14;109121;1273;22505;-84
2023/01/18 03:51:20;;;;;;;;;;;;;;;0.42;96.65;93807.11;109061;1254;55013;-84
2023/01/18 03:53:54;;;;;;;;;;;;;;;0.43;96.84;93791.23;109088;1263;22507;-83
2023/01/18 03:56:27;;;;;;;;;;;;;;;0.45;96.92;93788.33;109187;1273;22537;-83
2023/01/18 03:59:00;;;;;;;;;;;;;;;0.43;96.85;93789.19;109088;1273;26905;-84
2023/01/18 04:01:29;;;;;;;;;;;;;;;0.40;96.99;93784.99;109061;1273;22545;-86
2023/01/18 04:03:59;;;;;;;;;;;;;;;0.41;97.07;93777.89;109088;1267;22531;-84
2023/01/18 04:06:29;;;;;;;;;;;;;;;0.40;97.09;93775.83;109107;1273;25411;-84
2023/01/18 04:08:58;;;;;;;;;;;;;;;0.37;97.02;93774.84;109144;1273;22912;-84
2023/01/18 04:11:28;;;;;;;;;;;;;;;0.32;97.08;93766.67;109032;1267;25291;-83
2023/01/18 04:14:02;;;;;;;;;;;;;;;0.27;97.54;93766.95;109178;1265;22611;-84
2023/01/18 04:16:32;;;;;;;;;;;;;;;0.25;97.13;93767.71;109104;1267;22492;-84
2023/01/18 04:19:01;;;;;;;;;;;;;;;0.23;97.46;93773.21;109102;1273;22574;-83
2023/01/18 04:21:34;;;;;;;;;;;;;;;0.21;97.41;93777.56;109076;1267;50269;-84
2023/01/18 04:24:06;;;;;;;;;;;;;;;0.18;97.53;93791.48;109162;1266;23125;-83
2023/01/18 04:26:36;;;;;;;;;;;;;;;0.15;97.90;93794.48;109161;1273;25387;-84
2023/01/18 04:29:06;;;;;;;;;;;;;;;0.13;97.91;93794.91;109154;1273;26547;-84
2023/01/18 04:31:35;;;;;;;;;;;;;;;0.09;98.10;93806.84;109137;1273;22498;-83
2023/01/18 04:34:05;;;;;;;;;;;;;;;0.07;98.33;93817.14;109156;1273;22512;-84
2023/01/18 04:36:34;;;;;;;;;;;;;;;0.06;98.24;93814.76;109144;1273;22686;-83
2023/01/18 04:39:05;;;;;;;;;;;;;;;0.05;98.88;93815.56;109135;1273;23280;-84
2023/01/18 04:41:35;;;;;;;;;;;;;;;0.01;98.76;93809.11;109096;1267;22958;-84
2023/01/18 04:44:04;;;;;;;;;;;;;;;0.02;98.68;93798.95;109125;1273;22864;-84
2023/01/18 04:46:35;;;;;;;;;;;;;;;0.02;98.98;93794.41;109086;1267;22510;-84
2023/01/18 04:49:05;;;;;;;;;;;;;;;0.03;99.19;93792.92;109105;1273;26556;-84
2023/01/18 04:51:34;;;;;;;;;;;;;;;0.07;98.93;93779.80;109052;1266;22540;-84
2023/01/18 04:54:04;;;;;;;;;;;;;;;0.14;99.23;93774.50;109141;1266;22498;-83
2023/01/18 04:56:35;;;;;;;;;;;;;;;0.20;99.20;93774.61;109017;1267;22537;-83
2023/01/18 04:59:06;;;;;;;;;;;;;;;0.21;99.10;93787.89;109128;1270;22609;-83
2023/01/18 05:01:35;;;;;;;;;;;;;;;0.17;98.96;93801.38;109090;1266;69395;-84
2023/01/18 05:04:05;;;;;;;;;;;;;;;0.16;99.02;93800.27;109070;1274;22622;-84
2023/01/18 05:06:34;;;;;;;;;;;;;;;0.13;99.18;93803.52;109170;1273;22501;-84
2023/01/18 05:09:04;;;;;;;;;;;;;;;0.12;99.07;93807.80;109058;1273;22544;-83
2023/01/18 05:11:46;;;;;;;;;;;;;;;0.10;99.36;93813.56;109010;1273;94982;-84
2023/01/18 05:14:19;;;;;;;;;;;;;;;0.09;99.26;93808.52;109156;1273;25677;-84
2023/01/18 05:16:49;;;;;;;;;;;;;;;0.13;99.48;93808.58;109119;1272;22788;-84
2023/01/18 05:19:18;;;;;;;;;;;;;;;0.19;99.86;93806.30;109056;1269;22517;-83
2023/01/18 05:21:48;;;;;;;;;;;;;;;0.24;99.60;93804.56;109084;1273;62085;-83
2023/01/18 05:24:18;;;;;;;;;;;;;;;0.28;99.58;93784.19;109153;1266;22547;-83
2023/01/18 05:26:50;;;;;;;;;;;;;;;0.31;99.77;93763.16;109097;1266;22511;-83
2023/01/18 05:29:20;;;;;;;;;;;;;;;0.32;99.76;93754.90;109146;1265;22512;-83
2023/01/18 05:31:49;;;;;;;;;;;;;;;0.32;99.61;93764.25;109107;1267;36237;-83
2023/01/18 05:34:19;;;;;;;;;;;;;;;0.23;99.71;93783.37;109159;1273;23068;-83
2023/01/18 05:36:49;;;;;;;;;;;;;;;0.10;99.78;93794.23;109137;1266;24186;-83
2023/01/18 05:39:19;;;;;;;;;;;;;;;0.00;100.00;93805.46;109093;1269;22498;-83
2023/01/18 05:41:49;;;;;;;;;;;;;;;-0.06;100.00;93801.84;109052;1273;41808;-83
2023/01/18 05:44:19;;;;;;;;;;;;;;;-0.07;100.00;93789.66;109130;1273;22705;-83
2023/01/18 05:46:49;;;;;;;;;;;;;;;-0.01;100.00;93773.14;109075;1273;24212;-83
2023/01/18 05:49:22;;;;;;;;;;;;;;;0.06;100.00;93763.20;109151;1273;26493;-83
2023/01/18 05:51:52;;;;;;;;;;;;;;;0.10;100.00;93761.00;109143;1270;35616;-83
2023/01/18 05:54:21;;;;;;;;;;;;;;;0.09;100.00;93763.30;109146;1273;22550;-83
2023/01/18 05:56:51;;;;;;;;;;;;;;;0.10;100.00;93781.42;109110;1273;25013;-83
2023/01/18 05:59:23;;;;;;;;;;;;;;;0.12;100.00;93780.25;109093;1273;22499;-83
2023/01/18 06:01:53;;;;;;;;;;;;;;;0.10;100.00;93793.30;109111;1265;44434;-83
2023/01/18 06:04:23;;;;;;;;;;;;;;;0.03;100.00;93807.20;109121;1273;22513;-83
2023/01/18 06:06:53;;;;;;;;;;;;;;;-0.06;100.00;93820.16;109136;1273;24186;-83
2023/01/18 06:09:25;;;;;;;;;;;;;;;-0.10;100.00;93821.54;109121;1273;25389;-83
2023/01/18 06:11:55;;;;;;;;;;;;;;;-0.10;100.00;93818.84;109056;1273;49430;-83
2023/01/18 06:14:25;;;;;;;;;;;;;;;-0.05;100.00;93825.16;109143;1273;25446;-83
2023/01/18 06:16:54;;;;;;;;;;;;;;;-0.03;100.00;93826.58;109131;1273;22543;-83
2023/01/18 06:19:26;;;;;;;;;;;;;;;0.01;100.00;93826.72;109103;1273;22955;-83
2023/01/18 06:21:58;;;;;;;;;;;;;;;0.02;100.00;93826.91;109042;1267;99183;-83
2023/01/18 06:24:28;;;;;;;;;;;;;;;0.05;100.00;93821.61;109133;1273;22504;-83
2023/01/18 06:26:59;;;;;;;;;;;;;;;0.07;100.00;93821.27;109154;1273;22507;-83
2023/01/18 06:29:35;;;;;;;;;;;;;;;0.06;100.00;93819.61;109132;1273;22522;-83
2023/01/18 06:32:05;;;;;;;;;;;;;;;0.07;100.00;93821.52;109137;1269;27110;-83
2023/01/18 06:34:35;;;;;;;;;;;;;;;0.10;100.00;93810.08;109180;1270;22512;-83
2023/01/18 06:37:05;;;;;;;;;;;;;;;0.08;100.00;93809.64;109103;1269;22499;-84
2023/01/18 06:39:34;;;;;;;;;;;;;;;0.05;100.00;93813.27;109096;1266;22596;-83
2023/01/18 06:42:04;;;;;;;;;;;;;;;0.09;100.00;93812.69;109020;1270;54188;-83
2023/01/18 06:44:34;;;;;;;;;;;;;;;0.14;100.00;93811.59;109139;1273;25361;-83
2023/01/18 06:47:04;;;;;;;;;;;;;;;0.18;100.00;93821.64;109100;1266;22502;-83
2023/01/18 06:49:34;;;;;;;;;;;;;;;0.15;100.00;93834.66;109104;1270;22532;-83
2023/01/18 06:52:03;;;;;;;;;;;;;;;0.12;100.00;93828.89;109131;1273;40519;-84
2023/01/18 06:54:33;;;;;;;;;;;;;;;0.16;100.00;93836.05;109131;1273;24280;-83
2023/01/18 06:57:02;;;;;;;;;;;;;;;0.22;100.00;93840.75;109109;1269;22495;-83
2023/01/18 06:59:33;;;;;;;;;;;;;;;0.29;100.00;93839.36;109047;1274;24244;-83
2023/01/18 07:02:03;;;;;;;;;;;;;;;0.34;100.00;93843.73;109103;1273;80647;-83
2023/01/18 07:04:36;;;;;;;;;;;;;;;0.37;100.00;93840.34;109081;1273;25249;-83
2023/01/18 07:07:06;;;;;;;;;;;;;;;0.40;100.00;93837.02;109092;1273;22547;-83
2023/01/18 07:09:36;;;;;;;;;;;;;;;0.35;100.00;93846.10;109108;1267;22508;-83
2023/01/18 07:12:08;;;;;;;;;;;;;;;0.16;100.00;93841.52;109102;1265;46550;-83
2023/01/18 07:14:38;;;;;;;;;;;;;;;0.06;100.00;93832.38;109141;1273;22494;-83
2023/01/18 07:17:08;;;;;;;;;;;;;;;0.10;100.00;93835.65;109129;1273;22509;-83
2023/01/18 07:19:40;;;;;;;;;;;;;;;0.15;100.00;93839.55;109083;1266;23841;-83
2023/01/18 07:22:12;;;;;;;;;;;;;;;0.11;100.00;93842.25;109080;1273;36937;-83
2023/01/18 07:24:41;;;;;;;;;;;;;;;0.08;100.00;93851.98;109128;1273;22604;-84
2023/01/18 07:27:11;;;;;;;;;;;;;;;0.12;100.00;93859.73;109183;1273;25664;-83
2023/01/18 07:29:40;;;;;;;;;;;;;;;0.14;100.00;93858.31;109138;1273;22465;-83
2023/01/18 07:32:10;;;;;;;;;;;;;;;0.16;100.00;93865.23;109049;1273;46372;-83
2023/01/18 07:34:40;;;;;;;;;;;;;;;0.20;100.00;93865.90;109124;1266;22530;-83
2023/01/18 07:37:10;;;;;;;;;;;;;;;0.26;100.00;93870.40;109097;1273;23730;-83
2023/01/18 07:39:43;;;;;;;;;;;;;;;0.31;100.00;93873.89;109082;1266;24037;-83
2023/01/18 07:42:15;;;;;;;;;;;;;;;0.38;100.00;93873.37;109085;1273;46690;-83
2023/01/18 07:44:44;;;;;;;;;;;;;;;0.42;100.00;93870.24;109116;1273;23722;-83
2023/01/18 07:47:16;;;;;;;;;;;;;;;0.48;100.00;93869.33;109109;1273;23192;-83
2023/01/18 07:49:45;;;;;;;;;;;;;;;0.53;100.00;93868.88;109112;1266;22973;-83
2023/01/18 07:52:15;;;;;;;;;;;;;;;0.59;100.00;93868.09;109047;1274;67304;-83
2023/01/18 07:54:45;;;;;;;;;;;;;;;0.64;100.00;93869.98;109189;1273;22540;-83
2023/01/18 07:57:14;;;;;;;;;;;;;;;0.64;100.00;93863.38;109148;1273;22505;-84
2023/01/18 07:59:44;;;;;;;;;;;;;;;0.63;100.00;93855.26;109082;1266;22504;-84
2023/01/18 08:02:16;;;;;;;;;;;;;;;0.65;100.00;93842.56;109041;1270;103504;-84
2023/01/18 08:04:49;;;;;;;;;;;;;;;0.67;100.00;93841.58;109061;1266;23734;-84
2023/01/18 08:07:19;;;;;;;;;;;;;;;0.70;100.00;93841.80;109154;1273;22539;-84
2023/01/18 08:09:50;;;;;;;;;;;;;;;0.74;100.00;93852.55;109131;1265;22491;-84
2023/01/18 08:12:20;;;;;;;;;;;;;;;0.75;100.00;93850.39;109061;1273;56455;-84
2023/01/18 08:14:50;;;;;;;;;;;;;;;0.75;100.00;93856.13;109094;1273;22495;-84
2023/01/18 08:17:20;;;;;;;;;;;;;;;0.75;100.00;93857.17;109139;1266;24895;-84
2023/01/18 08:19:50;;;;;;;;;;;;;;;0.71;100.00;93856.02;109133;1269;23273;-85
2023/01/18 08:22:20;;;;;;;;;;;;;;;0.67;100.00;93857.02;109099;1273;49506;-84
2023/01/18 08:24:49;;;;;;;;;;;;;;;0.63;100.00;93860.84;109164;1273;22521;-84
2023/01/18 08:27:19;;;;;;;;;;;;;;;0.63;100.00;93856.30;109161;1270;22494;-84
2023/01/18 08:29:49;;;;;;;;;;;;;;;0.60;100.00;93859.38;109084;1273;22570;-84
2023/01/18 08:32:18;;;;;;;;;;;;;;;0.58;100.00;93857.83;109095;1269;38119;-84
2023/01/18 08:34:49;;;;;;;;;;;;;;;0.56;100.00;93862.23;109094;1269;24745;-84
2023/01/18 08:37:22;;;;;;;;;;;;;;;0.56;100.00;93862.12;109116;1269;22526;-84
2023/01/18 08:39:52;;;;;;;;;;;;;;;0.58;100.00;93864.13;109095;1273;22513;-84
2023/01/18 08:42:21;;;;;;;;;;;;;;;0.58;100.00;93866.48;109060;1273;42911;-84
2023/01/18 08:44:52;;;;;;;;;;;;;;;0.59;100.00;93875.27;109109;1273;23894;-84
2023/01/18 08:47:22;;;;;;;;;;;;;;;0.61;100.00;93873.17;109148;1272;22499;-83
2023/01/18 08:49:51;;;;;;;;;;;;;;;0.60;100.00;93869.64;109120;1266;24203;-84
2023/01/18 08:52:21;;;;;;;;;;;;;;;0.63;100.00;93877.41;109144;1269;33672;-83
2023/01/18 08:54:51;;;;;;;;;;;;;;;0.68;100.00;93889.08;109153;1266;22512;-83
2023/01/18 08:57:22;;;;;;;;;;;;;;;0.66;100.00;93894.94;109039;1273;123195;-83
2023/01/18 08:59:51;;;;;;;;;;;;;;;0.65;100.00;93899.34;109132;1265;22664;-84
2023/01/18 09:02:21;;;;;;;;;;;;;;;0.68;100.00;93910.45;109097;1273;31258;-84
2023/01/18 09:04:51;;;;;;;;;;;;;;;0.71;100.00;93911.35;109130;1273;22546;-83
2023/01/18 09:07:21;;;;;;;;;;;;;;;0.75;100.00;93917.66;109131;1273;22504;-83
2023/01/18 09:09:50;;;;;;;;;;;;;;;0.77;100.00;93921.17;109119;1265;22498;-83
2023/01/18 09:12:19;;;;;;;;;;;;;;;0.80;100.00;93915.86;109095;1273;65004;-83
2023/01/18 09:14:49;;;;;;;;;;;;;;;0.81;100.00;93917.45;109088;1265;22504;-84
2023/01/18 09:17:20;;;;;;;;;;;;;;;0.86;100.00;93915.05;109066;1274;24809;-84
2023/01/18 09:19:51;;;;;;;;;;;;;;;0.90;100.00;93905.55;109127;1266;22539;-83
2023/01/18 09:22:21;;;;;;;;;;;;;;;0.93;100.00;93899.88;109088;1273;53382;-83
2023/01/18 09:24:51;;;;;;;;;;;;;;;0.98;100.00;93893.27;109117;1267;22516;-83
2023/01/18 09:27:20;;;;;;;;;;;;;;;1.06;100.00;93890.73;109103;1273;23391;-84
2023/01/18 09:29:51;;;;;;;;;;;;;;;1.15;100.00;93887.38;109117;1273;22987;-84
2023/01/18 09:32:20;;;;;;;;;;;;;;;1.19;100.00;93880.21;107759;1269;1782617;-84
2023/01/18 09:34:50;;;;;;;;;;;;;;;1.29;100.00;93880.52;109100;1273;22523;-84
2023/01/18 09:37:20;;;;;;;;;;;;;;;1.41;100.00;93887.98;109109;1273;24205;-83
2023/01/18 09:39:52;;;;;;;;;;;;;;;1.44;100.00;93897.30;109103;1266;22549;-83
2023/01/18 09:42:28;;;;;;;;;;;;;;;1.42;100.00;93916.86;109120;1254;23840;-83
2023/01/18 09:45:01;;;;;;;;;;;;;;;1.40;100.00;93931.17;109055;1270;22549;-84
2023/01/18 09:47:35;;;;;;;;;;;;;;;1.41;100.00;93951.05;109103;1266;22506;-83
2023/01/18 09:50:13;;;;;;;;;;;;;;;1.39;100.00;93956.23;109073;1270;34012;-83
2023/01/18 09:52:49;;;;;;;;;;;;;;;1.40;100.00;93962.38;109140;1273;22491;-83
2023/01/18 09:55:26;;;;;;;;;;;;;;;1.41;100.00;93960.56;109111;1273;23958;-83
2023/01/18 09:58:04;;;;;;;;;;;;;;;1.45;100.00;93950.74;109137;1266;22512;-83
2023/01/18 10:00:37;;;;;;;;;;;;;;;1.46;100.00;93946.17;109044;1267;36793;-83
2023/01/18 10:03:11;;;;;;;;;;;;;;;1.43;100.00;93947.68;109158;1273;22547;-83
2023/01/18 10:05:48;;;;;;;;;;;;;;;1.42;100.00;93950.95;109149;1273;22510;-83
2023/01/18 10:08:21;;;;;;;;;;;;;;;1.39;100.00;93951.48;109135;1273;22569;-83
2023/01/18 10:10:56;;;;;;;;;;;;;;;1.41;100.00;93953.77;109097;1266;32397;-83
2023/01/18 10:13:36;;;;;;;;;;;;;;;1.53;100.00;93965.84;109145;1270;22559;-83
2023/01/18 10:16:09;;;;;;;;;;;;;;;1.64;100.00;93975.55;109133;1270;24197;-82
2023/01/18 10:18:44;;;;;;;;;;;;;;;1.70;100.00;93982.58;109102;1266;22934;-83
2023/01/18 10:21:23;;;;;;;;;;;;;;;1.77;100.00;93986.11;109046;1269;70634;-83
2023/01/18 10:23:59;;;;;;;;;;;;;;;1.82;100.00;93992.36;109115;1273;22506;-83
2023/01/18 10:26:32;;;;;;;;;;;;;;;1.84;100.00;93987.54;109112;1273;25754;-83
2023/01/18 10:29:05;;;;;;;;;;;;;;;1.85;100.00;93976.81;109108;1273;22556;-83
2023/01/18 10:31:43;;;;;;;;;;;;;;;1.88;100.00;93977.28;109081;1273;61517;-83
2023/01/18 10:34:17;;;;;;;;;;;;;;;1.93;100.00;93983.45;109116;1273;25223;-83
2023/01/18 10:36:49;;;;;;;;;;;;;;;2.06;100.00;93991.47;109125;1273;22496;-83
2023/01/18 10:39:30;;;;;;;;;;;;;;;2.21;100.00;94005.90;109113;1267;22515;-83
2023/01/18 10:42:03;;;;;;;;;;;;;;;2.38;100.00;94003.02;109091;1273;37453;-83
2023/01/18 10:44:33;;;;;;;;;;;;;;;2.55;100.00;94000.31;109130;1273;24297;-83
2023/01/18 10:47:05;;;;;;;;;;;;;;;2.64;100.00;94002.96;109127;1273;22532;-83
2023/01/18 10:49:36;;;;;;;;;;;;;;;2.64;100.00;94010.84;109088;1273;23710;-83
2023/01/18 10:52:19;;;;;;;;;;;;;;;2.64;100.00;94019.27;109029;1266;37860;-83
2023/01/18 10:54:54;;;;;;;;;;;;;;;2.68;100.00;94020.93;109110;1266;22560;-83
2023/01/18 10:57:26;;;;;;;;;;;;;;;2.70;100.00;94019.44;109111;1270;22496;-83
2023/01/18 10:59:57;;;;;;;;;;;;;;;2.69;100.00;94022.10;109063;1266;24916;-83
2023/01/18 11:02:30;;;;;;;;;;;;;;;2.67;99.91;94035.86;109116;1269;22617;-83
2023/01/18 11:05:02;;;;;;;;;;;;;;;2.62;99.74;94036.45;109109;1269;24979;-84
2023/01/18 11:07:32;;;;;;;;;;;;;;;2.61;99.76;94044.13;109118;1273;22535;-83
2023/01/18 11:31:30;;;;;;;17.60;13.50;;;;;;;3.12;98.90;94067.52;105374;1314;558230;-83
2023/01/18 11:34:07;;;;;;;17.10;13.80;;;;;;;3.18;98.72;94072.72;108080;1278;125572;-83
2023/01/18 11:36:41;;;;;;;21.10;17.30;;;;;;;3.18;98.89;94067.98;108327;1283;26622;-83
2023/01/18 11:39:27;;;;;;;24.50;18.20;;;;;;;3.19;99.08;94068.66;108287;1277;22557;-83
2023/01/18 11:42:24;;;;;;;26.50;19.70;;;;;;;3.18;99.00;94077.11;108933;1275;37649;-83
2023/01/18 11:45:15;;;;;;;22.00;17.40;;;;;;;3.19;99.23;94077.36;108856;1275;23946;-83
2023/01/18 11:47:57;;;;;;;10.60;6.90;;;;;;;3.23;99.36;94080.22;108917;1275;22526;-83
2023/01/18 11:50:34;;;;;;;8.60;5.90;;;;;;;3.27;99.12;94082.91;108947;1275;22551;-83
2023/01/18 11:53:18;;;;;;;6.00;4.30;;;;;;;3.34;99.16;94094.55;108883;1275;34043;-84
2023/01/18 11:55:55;;;;;;;7.70;4.70;;;;;;;3.37;98.94;94095.84;109229;1266;22534;-83
2023/01/18 11:58:28;;;;;;;8.50;5.40;;;;;;;3.42;98.75;94097.90;109053;1271;23312;-83
2023/01/18 12:01:23;;;;;;;6.30;3.60;;;;;;;3.61;98.67;94100.56;109189;1268;22574;-84
2023/01/18 12:04:01;;;;;;;8.30;5.00;;;;;;;3.69;97.89;94110.19;109130;1268;32531;-84
2023/01/18 12:06:46;;;;;;;9.90;4.50;;;;;;;3.68;97.12;94115.79;109209;1271;22527;-83
2023/01/18 12:09:30;;;;;;;7.40;4.30;;;;;;;3.62;96.84;94121.61;109174;1271;22562;-84
2023/01/18 12:12:17;;;;;;;7.40;4.70;;;;;;;3.53;96.31;94124.83;109134;1271;22540;-84
2023/01/18 12:15:03;;;;;;;11.10;6.90;;;;;;;3.48;96.57;94135.35;109143;1268;24207;-84
2023/01/18 12:17:49;;;;;;;12.20;6.50;;;;;;;3.51;96.78;94142.42;109133;1271;25370;-84
2023/01/18 12:20:33;;;;;;;9.50;6.40;;;;;;;3.52;96.56;94157.19;109164;1265;22563;-84
2023/01/18 12:23:30;;;;;;;11.70;6.70;;;;;;;3.46;96.45;94161.09;109106;1268;58323;-84
2023/01/18 12:26:16;;;;;;;10.00;6.20;;;;;;;3.37;96.45;94168.52;109111;1271;22527;-84
2023/01/18 12:29:10;;;;;;;14.20;8.30;;;;;;;3.34;96.56;94176.18;109170;1265;24203;-84
2023/01/18 12:31:56;;;;;;;13.00;7.90;;;;;;;3.31;96.83;94184.33;108974;1270;24199;-84
2023/01/18 12:34:39;;;;;;;15.10;9.40;;;;;;;3.29;96.79;94186.77;109010;1268;25343;-84
2023/01/18 12:37:36;;;;;;;13.30;9.00;;;;;;;3.31;97.08;94185.24;109013;1266;22613;-84
2023/01/18 12:40:31;;;;;;;17.30;9.50;;;;;;;3.34;96.84;94187.77;108987;1273;22476;-84
2023/01/18 12:43:20;;;;;;;14.00;8.50;;;;;;;3.37;96.97;94188.64;108907;1273;74353;-84
2023/01/18 12:45:59;;;;;;;13.90;8.20;;;;;;;3.43;97.06;94196.28;108945;1273;22565;-83
2023/01/18 12:48:35;;;;;;;11.80;8.60;;;;;;;3.43;96.84;94201.73;108989;1273;22584;-84
2023/01/18 12:51:16;;;;;;;10.20;7.20;;;;;;;3.34;96.52;94207.61;109011;1273;23407;-84
2023/01/18 12:53:54;;;;;;;7.80;5.30;;;;;;;3.23;96.35;94209.27;108919;1273;43752;-83
2023/01/18 12:56:35;;;;;;;10.00;5.60;;;;;;;3.16;96.35;94213.96;109045;1268;23263;-83
2023/01/18 12:59:14;;;;;;;8.70;5.40;;;;;;;3.11;96.20;94215.90;108947;1273;24245;-83
2023/01/18 13:01:51;;;;;;;8.00;5.30;;;;;;;3.06;96.33;94218.45;108993;1268;22517;-84
2023/01/18 13:04:28;;;;;;;9.10;5.10;;;;;;;3.02;96.44;94233.70;108975;1268;25503;-84
2023/01/18 13:07:06;;;;;;;9.40;5.50;;;;;;;3.00;96.53;94246.98;109069;1273;22550;-84
2023/01/18 13:09:42;;;;;;;11.40;7.10;;;;;;;2.98;96.60;94256.11;108987;1273;22564;-83
2023/01/18 13:12:18;;;;;;;9.50;5.40;;;;;;;2.99;96.61;94260.75;107657;1273;1815718;-83
2023/01/18 13:15:00;;;;;;;14.90;7.30;;;;;;;3.08;96.41;94268.86;108992;1273;24226;-84
2023/01/18 13:17:40;;;;;;;7.80;4.20;;;;;;;3.13;96.31;94290.22;109012;1268;22530;-83
2023/01/18 13:20:19;;;;;;;8.80;4.80;;;;;;;3.09;96.19;94302.72;108986;1270;22541;-84
2023/01/18 13:23:03;;;;;;;5.10;4.00;;;;;;;3.09;96.13;94319.80;108983;1266;54954;-84
2023/01/18 13:25:47;;;;;;;6.60;3.60;;;;;;;3.08;96.17;94333.73;109000;1272;22536;-84
2023/01/18 13:28:23;;;;;;;6.50;4.60;;;;;;;3.11;96.25;94340.39;109000;1273;22576;-84
2023/01/18 13:30:59;;;;;;;6.60;3.10;;;;;;;3.17;96.11;94355.46;109119;1272;22643;-84
2023/01/18 13:33:35;;;;;;;4.70;3.00;;;;;;;3.22;95.83;94364.02;109084;1270;43048;-84
2023/01/18 13:36:11;;;;;;;6.40;3.90;;;;;;;3.26;95.55;94365.03;109125;1272;22568;-83
2023/01/18 13:38:51;;;;;;;11.10;4.70;;;;;;;3.27;95.44;94373.12;109123;1265;24247;-84
2023/01/18 13:41:28;;;;;;;11.10;4.50;;;;;;;3.28;95.41;94379.23;109115;1272;23251;-84
2023/01/18 13:44:25;;;;;;;5.80;3.50;;;;;;;3.28;95.62;94380.95;109046;1267;51488;-83
2023/01/18 13:47:01;;;;;;;6.40;4.50;;;;;;;3.29;95.49;94399.75;109137;1265;22531;-84
2023/01/18 13:49:36;;;;;;;9.40;4.80;;;;;;;3.28;95.48;94405.77;108988;1272;25351;-84
2023/01/18 13:52:32;;;;;;;8.50;3.80;;;;;;;3.27;95.59;94416.48;109135;1265;35982;-84
2023/01/18 13:55:24;;;;;;;8.90;3.90;;;;;;;3.26;95.42;94427.35;109085;1272;22551;-84